Time;durP1;ratioP1;P1;durP2;ratioP2;P2;SDS_P1;SDS_P2;PMS_P1;PMS_P2;Temp;Humidity;BMP_temperature;BMP_pressure;BME280_temperature;BME280_humidity;BME280_pressure;Samples;Min_cycle;Max_cycle;Signal;HPM_P1;HPM_P2
2023/12/01 00:00:12;;;;;;;518.15;162.65;;;;;;;;;;5009203;28;20052;-82
2023/12/01 00:02:38;;;;;;;533.95;172.02;;;;;;;;;;5026910;28;20041;-84
2023/12/01 00:05:04;;;;;;;535.40;170.20;;;;;;;;;;5031635;28;20124;-86
2023/12/01 00:07:30;;;;;;;514.78;162.10;;;;;;;;;;5029938;28;20033;-82
2023/12/01 00:09:56;;;;;;;527.13;165.88;;;;;;;;;;5030703;28;20022;-82
2023/12/01 00:12:23;;;;;;;527.90;166.40;;;;;;;;;;5030838;28;20100;-83
2023/12/01 00:14:49;;;;;;;527.72;165.48;;;;;;;;;;5036001;28;20112;-82
2023/12/01 00:17:15;;;;;;;519.03;160.63;;;;;;;;;;5051505;28;20025;-82
2023/12/01 00:19:41;;;;;;;515.90;159.88;;;;;;;;;;5033793;28;20029;-82
2023/12/01 00:22:07;;;;;;;517.75;165.05;;;;;;;;;;5030295;28;20032;-82
2023/12/01 00:24:33;;;;;;;518.95;163.10;;;;;;;;;;5030396;28;20025;-82
2023/12/01 00:26:59;;;;;;;512.42;154.68;;;;;;;;;;5028368;28;20045;-81
2023/12/01 00:29:25;;;;;;;503.38;153.52;;;;;;;;;;5030664;28;20026;-85
2023/12/01 00:31:51;;;;;;;514.20;156.00;;;;;;;;;;5029480;28;20501;-84
2023/12/01 00:34:17;;;;;;;506.27;155.70;;;;;;;;;;5031887;28;20083;-82
2023/12/01 00:36:43;;;;;;;518.33;159.48;;;;;;;;;;5012823;28;20014;-82
2023/12/01 00:39:10;;;;;;;520.28;161.65;;;;;;;;;;5029772;28;20589;-82
2023/12/01 00:41:36;;;;;;;557.97;179.38;;;;;;;;;;5030382;28;20071;-81
2023/12/01 00:44:03;;;;;;;511.55;165.30;;;;;;;;;;5030315;28;20094;-82
2023/12/01 00:46:30;;;;;;;536.65;174.77;;;;;;;;;;5029915;28;20029;-81
2023/12/01 00:48:56;;;;;;;546.20;175.48;;;;;;;;;;5029670;28;20029;-85
2023/12/01 00:51:22;;;;;;;552.03;177.73;;;;;;;;;;5030157;28;20055;-83
2023/12/01 00:53:48;;;;;;;476.52;154.35;;;;;;;;;;5029872;28;20393;-85
2023/12/01 00:56:14;;;;;;;553.03;178.73;;;;;;;;;;5029670;28;20025;-84
2023/12/01 00:58:40;;;;;;;487.83;159.15;;;;;;;;;;5030547;28;20033;-85
2023/12/01 01:01:06;;;;;;;404.10;134.05;;;;;;;;;;5029905;28;20068;-82
2023/12/01 01:03:33;;;;;;;554.97;176.55;;;;;;;;;;5027763;28;20490;-82
2023/12/01 01:06:00;;;;;;;573.30;187.85;;;;;;;;;;5031399;28;20038;-85
2023/12/01 01:08:26;;;;;;;553.45;178.75;;;;;;;;;;5029819;28;20022;-82
2023/12/01 01:10:54;;;;;;;516.03;159.68;;;;;;;;;;5028264;28;20442;-83
2023/12/01 01:13:20;;;;;;;463.48;145.40;;;;;;;;;;5028967;28;20112;-85
2023/12/01 01:15:46;;;;;;;508.10;158.77;;;;;;;;;;5030121;28;20025;-82
2023/12/01 01:18:12;;;;;;;519.30;162.10;;;;;;;;;;5029011;28;20500;-82
2023/12/01 01:20:38;;;;;;;523.28;165.25;;;;;;;;;;5012365;28;20033;-82
2023/12/01 01:23:04;;;;;;;512.75;159.57;;;;;;;;;;5028678;28;20029;-82
2023/12/01 01:25:30;;;;;;;508.10;157.25;;;;;;;;;;5027761;28;20075;-85
2023/12/01 01:27:56;;;;;;;511.83;160.25;;;;;;;;;;5015484;28;20117;-86
2023/12/01 01:30:22;;;;;;;493.05;152.07;;;;;;;;;;5010436;28;20771;-83
2023/12/01 01:32:48;;;;;;;514.00;161.57;;;;;;;;;;5028904;28;20529;-84
2023/12/01 01:35:14;;;;;;;508.95;159.80;;;;;;;;;;5029418;28;20071;-82
2023/12/01 01:37:40;;;;;;;505.15;157.05;;;;;;;;;;5029293;28;20029;-82
2023/12/01 01:40:07;;;;;;;501.88;155.68;;;;;;;;;;5011955;28;20442;-85
2023/12/01 01:42:33;;;;;;;500.02;156.43;;;;;;;;;;5015061;28;20018;-82
2023/12/01 01:44:59;;;;;;;506.65;162.00;;;;;;;;;;5030554;28;20038;-82
2023/12/01 01:47:26;;;;;;;497.13;154.35;;;;;;;;;;5028719;28;20029;-82
2023/12/01 01:49:52;;;;;;;512.92;161.35;;;;;;;;;;5029907;28;20029;-83
2023/12/01 01:52:18;;;;;;;500.15;158.27;;;;;;;;;;5029044;28;20044;-83
2023/12/01 01:54:45;;;;;;;499.30;157.02;;;;;;;;;;5028998;28;20489;-85
2023/12/01 01:57:11;;;;;;;494.67;155.27;;;;;;;;;;5027197;28;20136;-85
2023/12/01 01:59:37;;;;;;;477.55;148.95;;;;;;;;;;5013801;28;20495;-85
2023/12/01 02:02:03;;;;;;;478.08;148.23;;;;;;;;;;5029507;28;20037;-84
2023/12/01 02:04:29;;;;;;;493.85;153.85;;;;;;;;;;5028924;28;20401;-82
2023/12/01 02:06:56;;;;;;;471.85;146.90;;;;;;;;;;5028702;28;20045;-82
2023/12/01 02:09:22;;;;;;;497.70;155.73;;;;;;;;;;5029565;28;20021;-83
2023/12/01 02:11:48;;;;;;;497.52;157.63;;;;;;;;;;5028196;28;20029;-82
2023/12/01 02:14:14;;;;;;;493.20;155.20;;;;;;;;;;5027381;28;20077;-84
2023/12/01 02:16:45;;;;;;;507.88;159.98;;;;;;;;;;5010046;28;20393;-85
2023/12/01 02:19:12;;;;;;;493.77;156.40;;;;;;;;;;5029527;28;20444;-85
2023/12/01 02:21:43;;;;;;;491.95;153.70;;;;;;;;;;5010895;28;20040;-85
2023/12/01 02:24:09;;;;;;;515.30;162.95;;;;;;;;;;5029013;28;20040;-85
2023/12/01 02:26:35;;;;;;;468.73;146.85;;;;;;;;;;5028742;28;20028;-82
2023/12/01 02:29:04;;;;;;;472.90;147.45;;;;;;;;;;5030043;28;20026;-85
2023/12/01 02:31:30;;;;;;;455.45;143.20;;;;;;;;;;5009732;28;20033;-83
2023/12/01 02:33:56;;;;;;;195.25;73.90;;;;;;;;;;5027754;28;20238;-84
2023/12/01 02:36:22;;;;;;;250.43;89.22;;;;;;;;;;5026260;28;20428;-82
2023/12/01 02:38:48;;;;;;;181.63;71.00;;;;;;;;;;5028186;28;20025;-82
2023/12/01 02:41:15;;;;;;;349.25;116.00;;;;;;;;;;5011518;28;20036;-83
2023/12/01 02:43:41;;;;;;;405.35;130.80;;;;;;;;;;5028258;28;20017;-85
2023/12/01 02:46:07;;;;;;;446.77;142.38;;;;;;;;;;5028167;28;20065;-82
2023/12/01 02:48:33;;;;;;;448.52;143.02;;;;;;;;;;5010063;28;20033;-83
2023/12/01 02:51:00;;;;;;;463.15;145.43;;;;;;;;;;5027130;28;20029;-83
2023/12/01 02:53:25;;;;;;;488.02;153.05;;;;;;;;;;5026455;28;20104;-83
2023/12/01 02:55:51;;;;;;;491.30;155.35;;;;;;;;;;5031026;28;20171;-82
2023/12/01 02:58:17;;;;;;;494.73;156.57;;;;;;;;;;5028029;28;20028;-87
2023/12/01 03:00:43;;;;;;;496.85;157.95;;;;;;;;;;5019978;28;20088;-83
2023/12/01 03:03:10;;;;;;;480.02;149.45;;;;;;;;;;5021234;28;20036;-82
2023/12/01 03:05:36;;;;;;;483.60;150.15;;;;;;;;;;5029413;28;20038;-85
2023/12/01 03:08:02;;;;;;;477.30;148.32;;;;;;;;;;5028550;28;20033;-82
2023/12/01 03:10:28;;;;;;;445.88;140.75;;;;;;;;;;5028754;28;20715;-83
2023/12/01 03:12:54;;;;;;;450.52;142.13;;;;;;;;;;5028375;28;20105;-82
2023/12/01 03:15:20;;;;;;;451.27;142.32;;;;;;;;;;5028277;28;20112;-82
2023/12/01 03:17:46;;;;;;;448.65;142.20;;;;;;;;;;5028771;28;20017;-81
2023/12/01 03:20:14;;;;;;;442.88;141.60;;;;;;;;;;5028448;28;20481;-82
2023/12/01 03:22:41;;;;;;;437.35;138.13;;;;;;;;;;5028476;28;20030;-82
2023/12/01 03:25:11;;;;;;;454.25;143.27;;;;;;;;;;5028847;28;20100;-82
2023/12/01 03:27:41;;;;;;;453.50;144.02;;;;;;;;;;5028853;28;20030;-82
2023/12/01 03:30:14;;;;;;;459.70;145.20;;;;;;;;;;5029060;28;20441;-82
2023/12/01 03:32:44;;;;;;;460.02;143.75;;;;;;;;;;5028377;28;20030;-82
2023/12/01 03:35:10;;;;;;;460.98;145.82;;;;;;;;;;5030110;28;20017;-82
2023/12/01 03:37:36;;;;;;;468.02;146.82;;;;;;;;;;5030926;28;20076;-87
2023/12/01 03:40:03;;;;;;;454.65;144.07;;;;;;;;;;5032501;28;20030;-84
2023/12/01 03:42:29;;;;;;;458.67;146.25;;;;;;;;;;5032309;28;20431;-84
2023/12/01 03:44:55;;;;;;;460.08;144.95;;;;;;;;;;5031993;28;20527;-84
2023/12/01 03:47:21;;;;;;;471.02;148.68;;;;;;;;;;5031918;28;20037;-85
2023/12/01 03:49:47;;;;;;;328.65;110.88;;;;;;;;;;5032000;28;20026;-85
2023/12/01 03:52:13;;;;;;;430.23;138.43;;;;;;;;;;5031482;28;20397;-83
2023/12/01 03:54:39;;;;;;;459.02;144.85;;;;;;;;;;5032284;28;20037;-84
2023/12/01 03:57:05;;;;;;;466.02;146.00;;;;;;;;;;5013055;28;20022;-84
2023/12/01 03:59:31;;;;;;;465.17;146.38;;;;;;;;;;5045444;28;20056;-85
2023/12/01 04:01:57;;;;;;;476.67;151.13;;;;;;;;;;5033685;28;20086;-83
2023/12/01 04:04:23;;;;;;;475.52;150.73;;;;;;;;;;5051827;28;20054;-83
2023/12/01 04:06:49;;;;;;;465.35;147.32;;;;;;;;;;5041386;28;20040;-86
2023/12/01 04:09:16;;;;;;;202.82;76.00;;;;;;;;;;5031659;28;20462;-84
2023/12/01 04:11:42;;;;;;;422.98;135.75;;;;;;;;;;5031851;28;20029;-83
2023/12/01 04:14:08;;;;;;;325.77;109.30;;;;;;;;;;5034897;28;20028;-85
2023/12/01 04:16:34;;;;;;;237.82;85.57;;;;;;;;;;5032998;28;20029;-85
2023/12/01 04:19:00;;;;;;;456.48;145.07;;;;;;;;;;5029892;28;20030;-85
2023/12/01 04:21:26;;;;;;;369.13;123.10;;;;;;;;;;5030233;28;20028;-84
2023/12/01 04:23:52;;;;;;;430.42;140.57;;;;;;;;;;5021575;28;20032;-84
2023/12/01 04:26:18;;;;;;;454.48;146.10;;;;;;;;;;5031963;28;20041;-85
2023/12/01 04:28:44;;;;;;;440.13;141.63;;;;;;;;;;5031082;28;20110;-83
2023/12/01 04:31:10;;;;;;;454.83;144.20;;;;;;;;;;5031921;28;20072;-84
2023/12/01 04:33:36;;;;;;;456.70;144.63;;;;;;;;;;5016509;28;20029;-85
2023/12/01 04:36:06;;;;;;;472.45;148.80;;;;;;;;;;5025177;28;20040;-84
2023/12/01 04:38:33;;;;;;;463.30;145.57;;;;;;;;;;5015180;28;20237;-83
2023/12/01 04:40:59;;;;;;;479.58;153.20;;;;;;;;;;5031324;28;20047;-84
2023/12/01 04:43:27;;;;;;;490.15;154.38;;;;;;;;;;5030929;28;20392;-84
2023/12/01 04:45:53;;;;;;;396.55;130.30;;;;;;;;;;5012955;28;20087;-84
2023/12/01 04:48:19;;;;;;;493.80;158.68;;;;;;;;;;5029643;28;20033;-89
2023/12/01 04:50:46;;;;;;;479.92;151.70;;;;;;;;;;5031562;28;20401;-83
2023/12/01 04:53:12;;;;;;;477.08;151.30;;;;;;;;;;5031890;28;20029;-84
2023/12/01 04:55:38;;;;;;;479.05;151.25;;;;;;;;;;5031352;28;20045;-86
2023/12/01 04:58:04;;;;;;;478.38;150.98;;;;;;;;;;5037330;28;20036;-82
2023/12/01 05:00:30;;;;;;;489.45;155.60;;;;;;;;;;5037843;28;20026;-83
2023/12/01 05:02:58;;;;;;;492.65;156.82;;;;;;;;;;5048245;28;20028;-82
2023/12/01 05:05:25;;;;;;;481.60;155.65;;;;;;;;;;5029264;28;20045;-81
2023/12/01 05:07:52;;;;;;;473.02;151.38;;;;;;;;;;5030049;28;20091;-83
2023/12/01 05:10:19;;;;;;;479.20;152.43;;;;;;;;;;5030657;28;20029;-82
2023/12/01 05:12:49;;;;;;;477.50;148.95;;;;;;;;;;5030271;28;20025;-82
2023/12/01 05:15:15;;;;;;;463.88;147.30;;;;;;;;;;5029488;28;20107;-81
2023/12/01 05:17:47;;;;;;;470.52;149.50;;;;;;;;;;5031251;28;20025;-81
2023/12/01 05:20:17;;;;;;;460.35;147.13;;;;;;;;;;5013339;28;20381;-82
2023/12/01 05:22:44;;;;;;;474.08;152.50;;;;;;;;;;5029602;28;20104;-84
2023/12/01 05:25:13;;;;;;;468.90;149.23;;;;;;;;;;5029079;28;20433;-81
2023/12/01 05:27:44;;;;;;;467.55;149.20;;;;;;;;;;5030262;28;20025;-81
2023/12/01 05:30:12;;;;;;;470.33;150.45;;;;;;;;;;5012347;28;20402;-82
2023/12/01 05:32:38;;;;;;;417.38;136.45;;;;;;;;;;5027208;28;20026;-82
2023/12/01 05:35:05;;;;;;;488.83;158.50;;;;;;;;;;5028440;28;20030;-82
2023/12/01 05:37:31;;;;;;;489.33;158.40;;;;;;;;;;5028395;28;20025;-85
2023/12/01 05:39:57;;;;;;;477.08;156.15;;;;;;;;;;5029361;28;20541;-86
2023/12/01 05:42:23;;;;;;;477.92;155.20;;;;;;;;;;5028221;28;20033;-83
2023/12/01 05:44:48;;;;;;;478.63;154.15;;;;;;;;;;5027590;28;20037;-89
2023/12/01 05:47:15;;;;;;;454.80;147.68;;;;;;;;;;5028996;28;20421;-85
2023/12/01 05:49:41;;;;;;;477.23;154.32;;;;;;;;;;5029270;28;20026;-85
2023/12/01 05:52:06;;;;;;;462.35;149.75;;;;;;;;;;5029072;28;20029;-85
2023/12/01 05:54:32;;;;;;;470.65;154.10;;;;;;;;;;5029022;28;20096;-83
2023/12/01 05:56:58;;;;;;;479.83;155.38;;;;;;;;;;5028723;28;20021;-86
2023/12/01 05:59:24;;;;;;;454.08;148.95;;;;;;;;;;5029245;28;20081;-82
2023/12/01 06:01:50;;;;;;;453.52;148.75;;;;;;;;;;5029913;28;20045;-86
2023/12/01 06:04:16;;;;;;;451.40;147.60;;;;;;;;;;5027148;28;20114;-84
2023/12/01 06:06:42;;;;;;;452.42;149.15;;;;;;;;;;5028606;28;20064;-82
2023/12/01 06:09:08;;;;;;;465.13;151.75;;;;;;;;;;5029672;28;20474;-82
2023/12/01 06:11:34;;;;;;;475.85;156.70;;;;;;;;;;5029518;28;20025;-84
2023/12/01 06:14:00;;;;;;;475.35;156.55;;;;;;;;;;5029419;28;20025;-85
2023/12/01 06:16:26;;;;;;;474.17;159.20;;;;;;;;;;5011426;28;20075;-87
2023/12/01 06:18:52;;;;;;;461.90;152.55;;;;;;;;;;5029292;28;20021;-82
2023/12/01 06:21:19;;;;;;;244.45;89.03;;;;;;;;;;5015425;28;20033;-82
2023/12/01 06:23:44;;;;;;;329.23;113.00;;;;;;;;;;5006622;28;20472;-83
2023/12/01 06:26:10;;;;;;;473.67;154.88;;;;;;;;;;5029636;28;20557;-82
2023/12/01 06:28:36;;;;;;;486.55;159.38;;;;;;;;;;5015588;28;20044;-82
2023/12/01 06:31:02;;;;;;;477.60;156.38;;;;;;;;;;5028133;28;20035;-82
2023/12/01 06:33:28;;;;;;;487.52;158.90;;;;;;;;;;5028704;28;20081;-82
2023/12/01 06:35:54;;;;;;;485.25;158.38;;;;;;;;;;5029151;28;20495;-86
2023/12/01 06:38:20;;;;;;;479.95;157.00;;;;;;;;;;5011381;28;20025;-84
2023/12/01 06:40:46;;;;;;;470.90;153.18;;;;;;;;;;5029799;28;20462;-82
2023/12/01 06:43:12;;;;;;;467.05;150.77;;;;;;;;;;5028945;28;20021;-82
2023/12/01 06:45:39;;;;;;;448.25;145.10;;;;;;;;;;5029030;28;20452;-81
2023/12/01 06:48:06;;;;;;;486.63;157.18;;;;;;;;;;5029054;28;20366;-82
2023/12/01 06:50:31;;;;;;;481.83;157.35;;;;;;;;;;5029012;28;20029;-83
2023/12/01 06:52:59;;;;;;;480.30;156.23;;;;;;;;;;5028878;28;20539;-82
2023/12/01 06:55:25;;;;;;;474.23;154.60;;;;;;;;;;5028990;28;20394;-82
2023/12/01 06:57:51;;;;;;;453.67;146.60;;;;;;;;;;5028826;28;20024;-82
2023/12/01 07:00:30;;;;;;;371.98;124.80;;;;;;;;;;5029758;28;20109;-84
2023/12/01 07:02:57;;;;;;;469.83;155.00;;;;;;;;;;5011316;28;20163;-83
2023/12/01 07:05:25;;;;;;;478.38;157.02;;;;;;;;;;5011239;28;20040;-82
2023/12/01 07:07:51;;;;;;;;;;;;;;;;;;5029159;28;20029;-84
2023/12/01 07:10:17;;;;;;;466.00;152.95;;;;;;;;;;5029739;28;20003;-82
2023/12/01 07:12:43;;;;;;;470.75;150.90;;;;;;;;;;5031091;28;20030;-83
2023/12/01 07:15:11;;;;;;;457.80;149.38;;;;;;;;;;5032567;28;20028;-82
2023/12/01 07:17:40;;;;;;;468.30;153.67;;;;;;;;;;5032732;28;20026;-84
2023/12/01 07:20:13;;;;;;;473.52;154.63;;;;;;;;;;5032729;28;20037;-82
2023/12/01 07:22:40;;;;;;;463.80;149.93;;;;;;;;;;5014856;28;20486;-83
2023/12/01 07:25:10;;;;;;;459.38;151.13;;;;;;;;;;5032520;28;20038;-83
2023/12/01 07:27:39;;;;;;;467.60;153.50;;;;;;;;;;5032670;28;20097;-83
2023/12/01 07:30:06;;;;;;;458.88;149.98;;;;;;;;;;5032526;28;20021;-82
2023/12/01 07:32:32;;;;;;;466.23;152.77;;;;;;;;;;5032521;28;20029;-82
2023/12/01 07:34:57;;;;;;;468.75;153.55;;;;;;;;;;5032472;28;20025;-82
2023/12/01 07:37:24;;;;;;;459.40;148.80;;;;;;;;;;5032341;28;20033;-82
2023/12/01 07:39:50;;;;;;;475.77;154.38;;;;;;;;;;5033323;28;20489;-85
2023/12/01 07:42:17;;;;;;;480.98;155.35;;;;;;;;;;5032552;28;20027;-82
2023/12/01 07:44:43;;;;;;;465.27;151.10;;;;;;;;;;5032146;28;20017;-82
2023/12/01 07:47:12;;;;;;;455.65;149.75;;;;;;;;;;5032261;28;20030;-85
2023/12/01 07:49:38;;;;;;;456.45;148.88;;;;;;;;;;5032245;28;20036;-83
2023/12/01 07:52:07;;;;;;;471.38;154.40;;;;;;;;;;5032183;28;20022;-82
2023/12/01 07:54:34;;;;;;;477.20;155.75;;;;;;;;;;5014214;28;20051;-82
2023/12/01 07:57:00;;;;;;;463.90;153.70;;;;;;;;;;5032013;28;20075;-82
2023/12/01 07:59:27;;;;;;;451.08;147.95;;;;;;;;;;5014206;28;20021;-82
2023/12/01 08:01:53;;;;;;;451.25;146.77;;;;;;;;;;5031869;28;20541;-82
2023/12/01 08:04:20;;;;;;;502.30;176.48;;;;;;;;;;5032517;28;20095;-82
2023/12/01 08:06:46;;;;;;;464.23;152.55;;;;;;;;;;5031829;28;20367;-82
2023/12/01 08:09:16;;;;;;;494.33;176.20;;;;;;;;;;5031658;28;20540;-82
2023/12/01 08:11:43;;;;;;;476.67;154.75;;;;;;;;;;5031811;28;20022;-82
2023/12/01 08:14:09;;;;;;;464.35;148.68;;;;;;;;;;5031685;28;20106;-82
2023/12/01 08:16:35;;;;;;;468.75;152.18;;;;;;;;;;5031660;28;20474;-82
2023/12/01 08:19:01;;;;;;;473.50;152.80;;;;;;;;;;5031615;28;20037;-82
2023/12/01 08:21:27;;;;;;;466.85;150.63;;;;;;;;;;5031536;28;20025;-82
2023/12/01 08:23:53;;;;;;;433.40;141.00;;;;;;;;;;5031139;28;20091;-83
2023/12/01 08:26:22;;;;;;;429.65;139.75;;;;;;;;;;5032310;28;20045;-82
2023/12/01 08:28:48;;;;;;;433.40;140.55;;;;;;;;;;5031404;28;20021;-82
2023/12/01 08:31:14;;;;;;;450.85;144.85;;;;;;;;;;5031438;28;20301;-82
2023/12/01 08:33:39;;;;;;;449.55;145.25;;;;;;;;;;5031240;28;20014;-82
2023/12/01 08:36:07;;;;;;;463.30;148.93;;;;;;;;;;5013620;28;20457;-82
2023/12/01 08:38:33;;;;;;;454.20;147.63;;;;;;;;;;5031332;28;20061;-82
2023/12/01 08:40:59;;;;;;;447.38;145.95;;;;;;;;;;5031154;28;20052;-82
2023/12/01 08:43:25;;;;;;;437.92;142.20;;;;;;;;;;5031198;28;20428;-82
2023/12/01 08:45:51;;;;;;;436.83;143.57;;;;;;;;;;5031887;28;20108;-82
2023/12/01 08:48:17;;;;;;;431.95;141.45;;;;;;;;;;5031091;28;20022;-83
2023/12/01 08:50:45;;;;;;;436.05;144.60;;;;;;;;;;5013216;28;20025;-83
2023/12/01 08:53:12;;;;;;;291.02;102.25;;;;;;;;;;5013292;28;20017;-82
2023/12/01 08:55:38;;;;;;;337.95;115.88;;;;;;;;;;5031029;28;20032;-82
2023/12/01 08:58:04;;;;;;;337.30;115.57;;;;;;;;;;5030905;28;20022;-82
2023/12/01 09:00:30;;;;;;;339.77;116.60;;;;;;;;;;5030859;28;20030;-82
2023/12/01 09:02:57;;;;;;;341.30;115.60;;;;;;;;;;5030564;28;20500;-82
2023/12/01 09:05:24;;;;;;;351.70;118.80;;;;;;;;;;5031633;28;20040;-81
2023/12/01 09:07:50;;;;;;;428.90;140.15;;;;;;;;;;5030885;28;20018;-81
2023/12/01 09:10:16;;;;;;;138.60;59.97;;;;;;;;;;5012895;28;20033;-81
2023/12/01 09:12:43;;;;;;;183.80;72.70;;;;;;;;;;5030579;28;20079;-85
2023/12/01 09:15:11;;;;;;;218.90;83.60;;;;;;;;;;5030616;28;20025;-81
2023/12/01 09:17:37;;;;;;;126.70;59.15;;;;;;;;;;5012779;28;20079;-82
2023/12/01 09:20:03;;;;;;;267.58;96.38;;;;;;;;;;5030519;28;20033;-82
2023/12/01 09:22:29;;;;;;;415.50;138.07;;;;;;;;;;5030565;28;20029;-81
2023/12/01 09:24:55;;;;;;;420.52;138.48;;;;;;;;;;5031133;28;20124;-81
2023/12/01 09:27:21;;;;;;;421.30;137.98;;;;;;;;;;5030884;28;20029;-81
2023/12/01 09:29:48;;;;;;;428.25;144.00;;;;;;;;;;5030341;28;20082;-81
2023/12/01 09:32:14;;;;;;;428.58;142.70;;;;;;;;;;5030296;28;20482;-81
2023/12/01 09:34:40;;;;;;;438.50;143.68;;;;;;;;;;5029884;28;20025;-83
2023/12/01 09:37:06;;;;;;;431.92;141.30;;;;;;;;;;5030065;28;20029;-83
2023/12/01 09:39:32;;;;;;;428.10;141.20;;;;;;;;;;5030138;28;20026;-83
2023/12/01 09:42:03;;;;;;;440.75;141.50;;;;;;;;;;5030048;28;20029;-83
2023/12/01 09:44:29;;;;;;;432.60;139.70;;;;;;;;;;5029982;28;20022;-82
2023/12/01 09:46:56;;;;;;;446.33;143.18;;;;;;;;;;5013012;28;20432;-82
2023/12/01 09:49:23;;;;;;;447.10;143.52;;;;;;;;;;5012365;28;20029;-82
2023/12/01 09:51:49;;;;;;;440.67;141.75;;;;;;;;;;5029936;28;20095;-82
2023/12/01 09:54:15;;;;;;;449.60;145.52;;;;;;;;;;5029847;28;20436;-86
2023/12/01 09:56:43;;;;;;;455.15;150.02;;;;;;;;;;5029757;28;20053;-82
2023/12/01 09:59:10;;;;;;;434.88;142.30;;;;;;;;;;5029759;28;20033;-82
2023/12/01 10:01:36;;;;;;;440.33;143.32;;;;;;;;;;5029662;28;20033;-86
2023/12/01 10:04:02;;;;;;;446.38;145.18;;;;;;;;;;5029744;28;20025;-82
2023/12/01 10:06:28;;;;;;;433.55;141.80;;;;;;;;;;5030467;28;20041;-83
2023/12/01 10:08:54;;;;;;;449.48;143.25;;;;;;;;;;5012658;28;20021;-83
2023/12/01 10:11:21;;;;;;;451.23;145.15;;;;;;;;;;5029481;28;20029;-84
2023/12/01 10:13:48;;;;;;;454.35;147.65;;;;;;;;;;5029468;28;20378;-83
2023/12/01 10:16:15;;;;;;;281.50;98.60;;;;;;;;;;5029581;28;20088;-82
2023/12/01 10:18:55;;;;;;;435.83;141.15;;;;;;;;;;5029465;28;20100;-82
2023/12/01 10:21:21;;;;;;;470.27;149.27;;;;;;;;;;5029487;28;20072;-83
2023/12/01 10:23:50;;;;;;;475.55;149.63;;;;;;;;;;5029257;28;20498;-83
2023/12/01 10:26:16;;;;;;;468.30;150.65;;;;;;;;;;5011452;28;20112;-83
2023/12/01 10:28:43;;;;;;;473.35;150.88;;;;;;;;;;5029309;28;20025;-83
2023/12/01 10:31:12;;;;;;;469.67;148.13;;;;;;;;;;5029348;28;20553;-83
2023/12/01 10:33:39;;;;;;;460.27;146.50;;;6.40;99.90;;;;;;5029332;28;20025;-83
2023/12/01 10:36:09;;;;;;;457.85;145.15;;;6.30;99.90;;;;;;5029177;28;20028;-83
2023/12/01 10:38:36;;;;;;;461.02;145.77;;;;;;;;;;5029190;28;20036;-82
2023/12/01 10:41:03;;;;;;;452.50;141.27;;;6.60;99.90;;;;;;5029083;28;20099;-82
2023/12/01 10:43:30;;;;;;;459.90;143.95;;;6.70;99.90;;;;;;5029845;28;20025;-83
2023/12/01 10:46:04;;;;;;;444.50;139.00;;;6.80;99.90;;;;;;5029577;28;20029;-83
2023/12/01 10:48:32;;;;;;;449.25;139.77;;;6.60;99.90;;;;;;5029741;28;20029;-83
2023/12/01 10:50:58;;;;;;;451.92;140.80;;;;;;;;;;5029707;28;20025;-83
2023/12/01 10:53:24;;;;;;;434.02;136.70;;;;;;;;;;5029012;28;20029;-83
2023/12/01 10:55:53;;;;;;;447.65;140.40;;;6.60;99.90;;;;;;5028979;28;20097;-83
2023/12/01 10:58:23;;;;;;;450.88;142.20;;;6.50;99.90;;;;;;5028927;28;20064;-83
2023/12/01 11:00:57;;;;;;;449.60;141.05;;;6.60;99.90;;;;;;5028892;28;20014;-82
2023/12/01 11:03:29;;;;;;;386.75;124.45;;;6.50;99.90;;;;;;5028891;28;20048;-83
2023/12/01 11:06:04;;;;;;;434.67;137.07;;;6.40;99.90;;;;;;5028810;28;20045;-83
2023/12/01 11:09:02;;;;;;;435.27;136.90;;;6.40;99.90;;;;;;5029727;28;20109;-83
2023/12/01 11:11:36;;;;;;;434.23;137.18;;;6.30;99.90;;;;;;4959354;28;20043;-83
2023/12/01 11:14:02;;;;;;;446.60;141.05;;;;;;;;;;5029655;28;20022;-83
2023/12/01 11:16:31;;;;;;;205.38;76.78;;;6.50;99.90;;;;;;5011873;28;20104;-83
2023/12/01 11:18:56;;;;;;;182.93;70.00;;;;;;;;;;5011032;28;20072;-83
2023/12/01 11:21:23;;;;;;;205.52;75.68;;;;;;;;;;5029045;28;20505;-84
2023/12/01 11:23:49;;;;;;;388.33;125.55;;;;;;;;;;5028820;28;20030;-83
2023/12/01 11:26:16;;;;;;;403.65;129.43;;;6.60;99.90;;;;;;5010787;28;20471;-83
2023/12/01 11:28:43;;;;;;;413.00;131.98;;;;;;;;;;5028607;28;20025;-82
2023/12/01 11:31:09;;;;;;;415.48;132.57;;;;;;;;;;5028633;28;20034;-82
2023/12/01 11:33:52;;;;;;;421.30;134.77;;;6.90;99.90;;;;;;5028628;28;20022;-84
2023/12/01 11:36:31;;;;;;;410.45;131.93;;;6.90;99.90;;;;;;5028667;28;20060;-85
2023/12/01 11:39:17;;;;;;;420.05;132.82;;;6.70;99.90;;;;;;5028607;28;20018;-83
2023/12/01 11:41:49;;;;;;;432.48;136.13;;;;;;;;;;5028594;28;20506;-86
2023/12/01 11:44:26;;;;;;;421.67;134.10;;;6.70;99.90;;;;;;5028538;28;20026;-85
2023/12/01 11:46:55;;;;;;;426.45;135.40;;;6.70;99.90;;;;;;5010789;28;20032;-87
2023/12/01 11:49:32;;;;;;;419.65;135.18;;;6.80;99.90;;;;;;5028533;28;20097;-87
2023/12/01 11:52:03;;;;;;;410.92;131.20;;;6.90;99.90;;;;;;5028520;28;20379;-83
2023/12/01 11:54:36;;;;;;;413.33;131.85;;;6.90;99.90;;;;;;5028389;28;20044;-88
2023/12/01 11:57:08;;;;;;;397.52;127.60;;;6.90;99.90;;;;;;5029375;28;20021;-83
2023/12/01 11:59:35;;;;;;;396.30;126.95;;;6.40;99.90;;;;;;5032749;28;20052;-89
2023/12/01 12:02:02;;;;;;;406.95;129.73;;;;;;;;;;5032797;28;20037;-83
2023/12/01 12:04:28;;;;;;;426.85;136.85;;;;;;;;;;5031886;28;20032;-83
2023/12/01 12:06:55;;;;;;;433.65;137.02;;;;;;;;;;5031737;28;20045;-83
2023/12/01 12:09:22;;;;;;;411.92;130.43;;;;;;;;;;5031958;28;20386;-83
2023/12/01 12:11:50;;;;;;;425.95;136.40;;;6.90;99.90;;;;;;5031823;28;20032;-83
2023/12/01 12:14:17;;;;;;;414.67;132.85;;;;;;;;;;5031761;28;20033;-83
2023/12/01 12:16:44;;;;;;;414.75;130.52;;;;;;;;;;5031821;28;20112;-84
2023/12/01 12:19:10;;;;;;;421.80;134.32;;;;;;;;;;5031780;28;20036;-84
2023/12/01 12:21:36;;;;;;;422.60;132.68;;;7.20;99.90;;;;;;5032462;28;20104;-84
2023/12/01 12:24:02;;;;;;;396.98;126.28;;;;;;;;;;5032442;28;20025;-84
2023/12/01 12:26:29;;;;;;;402.27;127.68;;;6.90;99.90;;;;;;5031480;28;20034;-83
2023/12/01 12:29:00;;;;;;;410.45;130.85;;;6.90;99.90;;;;;;5031535;28;20017;-88
2023/12/01 12:31:29;;;;;;;407.80;130.25;;;6.90;99.90;;;;;;5031435;28;20028;-83
2023/12/01 12:33:56;;;;;;;410.73;130.88;;;6.90;99.90;;;;;;5031572;28;20104;-83
2023/12/01 12:36:23;;;;;;;406.25;129.10;;;;;;;;;;5031374;28;20026;-83
2023/12/01 12:38:50;;;;;;;389.38;124.47;;;6.90;99.90;;;;;;5031350;28;20053;-83
2023/12/01 12:41:29;;;;;;;392.42;126.68;;;7.00;99.90;;;;;;5031216;28;20013;-83
2023/12/01 12:44:00;;;;;;;397.08;128.23;;;7.00;99.90;;;;;;5031226;28;20036;-83
2023/12/01 12:46:28;;;;;;;404.48;129.85;;;7.00;99.90;;;;;;5013225;28;20052;-83
2023/12/01 12:49:07;;;;;;;370.52;120.47;;;7.00;99.90;;;;;;5013396;28;20029;-83
2023/12/01 12:51:34;;;;;;;373.30;120.40;;;;;;;;;;5031935;28;20424;-83
2023/12/01 12:54:00;;;;;;;372.92;121.10;;;;;;;;;;5030855;28;20026;-83
2023/12/01 12:56:26;;;;;;;392.25;126.25;;;;;;;;;;5030923;28;20025;-83
2023/12/01 12:58:54;;;;;;;393.08;125.13;;;7.10;99.90;;;;;;5030922;28;20030;-92
2023/12/01 13:01:20;;;;;;;338.05;112.35;;;;;;;;;;5030818;28;20034;-83
2023/12/01 13:03:47;;;;;;;417.77;132.52;;;;;;;;;;5017849;28;20068;-82
2023/12/01 13:06:13;;;;;;;407.52;128.73;;;7.10;99.90;;;;;;5019550;28;20061;-83
2023/12/01 13:08:40;;;;;;;395.25;126.35;;;7.10;99.90;;;;;;5036530;28;20080;-83
2023/12/01 13:11:08;;;;;;;395.65;126.78;;;7.20;99.90;;;;;;5024653;28;20393;-83
2023/12/01 13:13:35;;;;;;;387.10;124.27;;;7.10;99.90;;;;;;5037412;28;20048;-83
2023/12/01 13:16:02;;;;;;;399.83;126.50;;;;;;;;;;5039378;28;20489;-82
2023/12/01 13:18:28;;;;;;;402.65;126.90;;;;;;;;;;5037640;28;20032;-88
2023/12/01 13:20:54;;;;;;;412.85;131.07;;;;;;;;;;5019595;28;20056;-84
2023/12/01 13:23:20;;;;;;;416.33;131.95;;;;;;;;;;5029230;28;20057;-85
2023/12/01 13:25:46;;;;;;;409.65;128.63;;;;;;;;;;5009875;28;20041;-84
2023/12/01 13:28:12;;;;;;;416.45;128.63;;;;;;;;;;5004160;28;20030;-86
2023/12/01 13:30:39;;;;;;;395.25;125.95;;;7.40;99.90;;;;;;5022665;28;20049;-88
2023/12/01 13:33:08;;;;;;;423.52;132.50;;;;;;;;;;5030654;28;20021;-85
2023/12/01 13:35:38;;;;;;;410.15;129.00;;;7.50;99.90;;;;;;5050109;28;20405;-84
2023/12/01 13:38:04;;;;;;;402.27;127.22;;;;;;;;;;5050034;28;20079;-86